sensor_id;sensor_type;location;lat;lon;timestamp;P1;durP1;ratioP1;P2;durP2;ratioP2
7029;SDS011;3556;53.500;10.176;2023-07-22T00:00:55;18.60;;;3.90;;
7029;SDS011;3556;53.500;10.176;2023-07-22T00:03:24;4.20;;;3.80;;
7029;SDS011;3556;53.500;10.176;2023-07-22T00:06:01;4.27;;;3.80;;
7029;SDS011;3556;53.500;10.176;2023-07-22T00:08:28;3.60;;;3.30;;
7029;SDS011;3556;53.500;10.176;2023-07-22T00:10:53;5.30;;;3.50;;
7029;SDS011;3556;53.500;10.176;2023-07-22T00:13:19;4.43;;;3.90;;
7029;SDS011;3556;53.500;10.176;2023-07-22T00:15:45;5.87;;;4.20;;
7029;SDS011;3556;53.500;10.176;2023-07-22T00:18:10;5.43;;;4.00;;
7029;SDS011;3556;53.500;10.176;2023-07-22T00:20:36;6.47;;;3.83;;
7029;SDS011;3556;53.500;10.176;2023-07-22T00:23:01;5.90;;;4.30;;
7029;SDS011;3556;53.500;10.176;2023-07-22T00:25:27;8.90;;;4.93;;
7029;SDS011;3556;53.500;10.176;2023-07-22T00:27:53;5.00;;;4.20;;
7029;SDS011;3556;53.500;10.176;2023-07-22T00:30:18;6.53;;;4.30;;
7029;SDS011;3556;53.500;10.176;2023-07-22T00:32:44;8.80;;;5.27;;
7029;SDS011;3556;53.500;10.176;2023-07-22T00:35:09;5.70;;;4.87;;
7029;SDS011;3556;53.500;10.176;2023-07-22T00:37:35;8.40;;;4.77;;
7029;SDS011;3556;53.500;10.176;2023-07-22T00:40:01;7.00;;;4.97;;
7029;SDS011;3556;53.500;10.176;2023-07-22T00:42:31;7.50;;;5.00;;
7029;SDS011;3556;53.500;10.176;2023-07-22T00:44:56;7.07;;;4.77;;
7029;SDS011;3556;53.500;10.176;2023-07-22T00:47:22;11.47;;;5.90;;
7029;SDS011;3556;53.500;10.176;2023-07-22T00:49:49;6.80;;;4.83;;
7029;SDS011;3556;53.500;10.176;2023-07-22T00:52:15;10.83;;;5.50;;
7029;SDS011;3556;53.500;10.176;2023-07-22T00:54:41;12.90;;;5.70;;
7029;SDS011;3556;53.500;10.176;2023-07-22T00:57:07;7.63;;;5.97;;
7029;SDS011;3556;53.500;10.176;2023-07-22T00:59:34;11.60;;;6.47;;
7029;SDS011;3556;53.500;10.176;2023-07-22T01:02:00;12.23;;;6.80;;
7029;SDS011;3556;53.500;10.176;2023-07-22T01:04:26;7.00;;;5.40;;
7029;SDS011;3556;53.500;10.176;2023-07-22T01:06:52;11.87;;;6.27;;
7029;SDS011;3556;53.500;10.176;2023-07-22T01:09:18;11.90;;;6.70;;
7029;SDS011;3556;53.500;10.176;2023-07-22T01:11:44;10.67;;;6.60;;
7029;SDS011;3556;53.500;10.176;2023-07-22T01:14:09;10.40;;;6.33;;
7029;SDS011;3556;53.500;10.176;2023-07-22T01:16:35;13.37;;;5.97;;
7029;SDS011;3556;53.500;10.176;2023-07-22T01:19:01;10.90;;;5.90;;
7029;SDS011;3556;53.500;10.176;2023-07-22T01:21:29;11.50;;;7.20;;
7029;SDS011;3556;53.500;10.176;2023-07-22T01:23:57;12.83;;;6.97;;
7029;SDS011;3556;53.500;10.176;2023-07-22T01:26:24;9.40;;;5.97;;
7029;SDS011;3556;53.500;10.176;2023-07-22T01:28:49;8.80;;;5.53;;
7029;SDS011;3556;53.500;10.176;2023-07-22T01:31:15;13.47;;;6.10;;
7029;SDS011;3556;53.500;10.176;2023-07-22T01:33:40;15.13;;;6.60;;
7029;SDS011;3556;53.500;10.176;2023-07-22T01:36:06;15.13;;;6.23;;
7029;SDS011;3556;53.500;10.176;2023-07-22T01:38:32;11.13;;;6.03;;
7029;SDS011;3556;53.500;10.176;2023-07-22T01:40:58;15.60;;;5.90;;
7029;SDS011;3556;53.500;10.176;2023-07-22T01:43:24;9.17;;;6.13;;
7029;SDS011;3556;53.500;10.176;2023-07-22T01:45:50;12.80;;;6.43;;
7029;SDS011;3556;53.500;10.176;2023-07-22T01:48:15;13.27;;;6.10;;
7029;SDS011;3556;53.500;10.176;2023-07-22T01:50:41;8.53;;;6.20;;
7029;SDS011;3556;53.500;10.176;2023-07-22T01:53:06;14.20;;;5.27;;
7029;SDS011;3556;53.500;10.176;2023-07-22T01:55:32;8.93;;;5.10;;
7029;SDS011;3556;53.500;10.176;2023-07-22T01:57:58;8.30;;;5.43;;
7029;SDS011;3556;53.500;10.176;2023-07-22T02:00:24;12.03;;;5.43;;
7029;SDS011;3556;53.500;10.176;2023-07-22T02:02:49;8.43;;;5.13;;
7029;SDS011;3556;53.500;10.176;2023-07-22T02:05:15;12.90;;;5.60;;
7029;SDS011;3556;53.500;10.176;2023-07-22T02:07:41;7.40;;;5.40;;
7029;SDS011;3556;53.500;10.176;2023-07-22T02:10:07;7.57;;;5.30;;
7029;SDS011;3556;53.500;10.176;2023-07-22T02:12:33;10.37;;;5.97;;
7029;SDS011;3556;53.500;10.176;2023-07-22T02:14:59;6.40;;;5.03;;
7029;SDS011;3556;53.500;10.176;2023-07-22T02:17:24;9.57;;;5.50;;
7029;SDS011;3556;53.500;10.176;2023-07-22T02:19:50;6.40;;;4.40;;
7029;SDS011;3556;53.500;10.176;2023-07-22T02:22:16;13.07;;;5.23;;
7029;SDS011;3556;53.500;10.176;2023-07-22T02:24:42;14.20;;;4.67;;
7029;SDS011;3556;53.500;10.176;2023-07-22T02:27:07;8.83;;;5.47;;
7029;SDS011;3556;53.500;10.176;2023-07-22T02:29:33;7.13;;;4.20;;
7029;SDS011;3556;53.500;10.176;2023-07-22T02:31:59;11.97;;;5.33;;
7029;SDS011;3556;53.500;10.176;2023-07-22T02:34:26;12.13;;;5.40;;
7029;SDS011;3556;53.500;10.176;2023-07-22T02:36:51;13.43;;;6.23;;
7029;SDS011;3556;53.500;10.176;2023-07-22T02:39:17;9.33;;;5.43;;
7029;SDS011;3556;53.500;10.176;2023-07-22T02:41:43;11.20;;;5.83;;
7029;SDS011;3556;53.500;10.176;2023-07-22T02:44:08;13.90;;;6.10;;
7029;SDS011;3556;53.500;10.176;2023-07-22T02:46:34;11.70;;;6.13;;
7029;SDS011;3556;53.500;10.176;2023-07-22T02:48:59;7.17;;;4.53;;
7029;SDS011;3556;53.500;10.176;2023-07-22T02:51:25;13.50;;;6.43;;
7029;SDS011;3556;53.500;10.176;2023-07-22T02:53:51;11.13;;;6.07;;
7029;SDS011;3556;53.500;10.176;2023-07-22T02:56:16;15.43;;;5.50;;
7029;SDS011;3556;53.500;10.176;2023-07-22T02:58:42;10.17;;;5.80;;
7029;SDS011;3556;53.500;10.176;2023-07-22T03:01:08;16.27;;;5.97;;
7029;SDS011;3556;53.500;10.176;2023-07-22T03:03:37;9.17;;;5.57;;
7029;SDS011;3556;53.500;10.176;2023-07-22T03:06:04;14.07;;;5.80;;
7029;SDS011;3556;53.500;10.176;2023-07-22T03:08:30;10.63;;;5.10;;
7029;SDS011;3556;53.500;10.176;2023-07-22T03:10:56;14.70;;;6.90;;
7029;SDS011;3556;53.500;10.176;2023-07-22T03:13:22;9.43;;;6.07;;
7029;SDS011;3556;53.500;10.176;2023-07-22T03:15:47;9.10;;;5.10;;
7029;SDS011;3556;53.500;10.176;2023-07-22T03:18:13;9.97;;;5.23;;
7029;SDS011;3556;53.500;10.176;2023-07-22T03:20:39;18.10;;;6.20;;
7029;SDS011;3556;53.500;10.176;2023-07-22T03:23:05;13.03;;;6.03;;
7029;SDS011;3556;53.500;10.176;2023-07-22T03:25:31;10.23;;;5.17;;
7029;SDS011;3556;53.500;10.176;2023-07-22T03:28:07;12.27;;;6.30;;
7029;SDS011;3556;53.500;10.176;2023-07-22T03:30:33;13.23;;;6.40;;
7029;SDS011;3556;53.500;10.176;2023-07-22T03:32:59;10.87;;;6.10;;
7029;SDS011;3556;53.500;10.176;2023-07-22T03:35:25;8.67;;;5.27;;
7029;SDS011;3556;53.500;10.176;2023-07-22T03:37:51;9.27;;;6.07;;
7029;SDS011;3556;53.500;10.176;2023-07-22T03:40:17;9.60;;;5.07;;
7029;SDS011;3556;53.500;10.176;2023-07-22T03:42:45;13.83;;;5.90;;
7029;SDS011;3556;53.500;10.176;2023-07-22T03:45:17;11.03;;;5.40;;
7029;SDS011;3556;53.500;10.176;2023-07-22T03:47:44;14.77;;;6.27;;
7029;SDS011;3556;53.500;10.176;2023-07-22T03:50:10;14.77;;;6.50;;
7029;SDS011;3556;53.500;10.176;2023-07-22T03:52:36;12.37;;;6.33;;
7029;SDS011;3556;53.500;10.176;2023-07-22T03:55:02;16.17;;;6.43;;
7029;SDS011;3556;53.500;10.176;2023-07-22T03:57:28;14.93;;;6.40;;
7029;SDS011;3556;53.500;10.176;2023-07-22T03:59:55;10.97;;;6.30;;
7029;SDS011;3556;53.500;10.176;2023-07-22T04:02:21;19.23;;;6.63;;
7029;SDS011;3556;53.500;10.176;2023-07-22T04:04:47;15.07;;;6.67;;
7029;SDS011;3556;53.500;10.176;2023-07-22T04:07:13;13.20;;;6.57;;
7029;SDS011;3556;53.500;10.176;2023-07-22T04:09:38;16.17;;;6.93;;
7029;SDS011;3556;53.500;10.176;2023-07-22T04:12:04;17.50;;;6.87;;
7029;SDS011;3556;53.500;10.176;2023-07-22T04:14:30;16.07;;;7.00;;
7029;SDS011;3556;53.500;10.176;2023-07-22T04:16:55;12.17;;;6.03;;
7029;SDS011;3556;53.500;10.176;2023-07-22T04:19:21;13.77;;;7.70;;
7029;SDS011;3556;53.500;10.176;2023-07-22T04:21:47;17.30;;;6.63;;
7029;SDS011;3556;53.500;10.176;2023-07-22T04:24:12;16.40;;;7.27;;
7029;SDS011;3556;53.500;10.176;2023-07-22T04:26:38;14.00;;;6.60;;
7029;SDS011;3556;53.500;10.176;2023-07-22T04:29:04;11.57;;;5.87;;
7029;SDS011;3556;53.500;10.176;2023-07-22T04:31:30;16.70;;;6.73;;
7029;SDS011;3556;53.500;10.176;2023-07-22T04:33:57;12.40;;;6.20;;
7029;SDS011;3556;53.500;10.176;2023-07-22T04:36:22;17.10;;;6.20;;
7029;SDS011;3556;53.500;10.176;2023-07-22T04:38:48;14.03;;;6.20;;
7029;SDS011;3556;53.500;10.176;2023-07-22T04:41:13;15.17;;;6.47;;
7029;SDS011;3556;53.500;10.176;2023-07-22T04:43:39;15.60;;;6.67;;
7029;SDS011;3556;53.500;10.176;2023-07-22T04:46:05;11.03;;;6.50;;
7029;SDS011;3556;53.500;10.176;2023-07-22T04:48:31;12.27;;;6.30;;
7029;SDS011;3556;53.500;10.176;2023-07-22T04:50:57;13.00;;;6.03;;
7029;SDS011;3556;53.500;10.176;2023-07-22T04:53:22;19.07;;;6.80;;
7029;SDS011;3556;53.500;10.176;2023-07-22T04:55:48;10.77;;;5.97;;
7029;SDS011;3556;53.500;10.176;2023-07-22T04:58:13;11.10;;;6.10;;
7029;SDS011;3556;53.500;10.176;2023-07-22T05:00:39;10.90;;;6.03;;
7029;SDS011;3556;53.500;10.176;2023-07-22T05:03:06;13.80;;;6.17;;
7029;SDS011;3556;53.500;10.176;2023-07-22T05:05:32;16.17;;;6.20;;
7029;SDS011;3556;53.500;10.176;2023-07-22T05:07:58;13.10;;;6.20;;
7029;SDS011;3556;53.500;10.176;2023-07-22T05:10:23;20.70;;;6.17;;
7029;SDS011;3556;53.500;10.176;2023-07-22T05:12:49;16.70;;;6.03;;
7029;SDS011;3556;53.500;10.176;2023-07-22T05:15:14;12.83;;;6.17;;
7029;SDS011;3556;53.500;10.176;2023-07-22T05:17:40;14.47;;;6.07;;
7029;SDS011;3556;53.500;10.176;2023-07-22T05:20:06;13.77;;;6.67;;
7029;SDS011;3556;53.500;10.176;2023-07-22T05:22:36;10.80;;;6.10;;
7029;SDS011;3556;53.500;10.176;2023-07-22T05:25:03;11.67;;;6.47;;
7029;SDS011;3556;53.500;10.176;2023-07-22T05:27:29;10.50;;;6.20;;
7029;SDS011;3556;53.500;10.176;2023-07-22T05:29:55;11.77;;;5.83;;
7029;SDS011;3556;53.500;10.176;2023-07-22T05:32:21;11.97;;;6.30;;
7029;SDS011;3556;53.500;10.176;2023-07-22T05:34:46;16.10;;;5.90;;
7029;SDS011;3556;53.500;10.176;2023-07-22T05:37:12;12.63;;;6.60;;
7029;SDS011;3556;53.500;10.176;2023-07-22T05:39:37;13.87;;;5.70;;
7029;SDS011;3556;53.500;10.176;2023-07-22T05:42:03;13.93;;;6.00;;
7029;SDS011;3556;53.500;10.176;2023-07-22T05:44:29;12.20;;;6.50;;
7029;SDS011;3556;53.500;10.176;2023-07-22T05:46:55;19.90;;;7.03;;
7029;SDS011;3556;53.500;10.176;2023-07-22T05:49:20;9.50;;;5.87;;
7029;SDS011;3556;53.500;10.176;2023-07-22T05:51:46;9.67;;;6.20;;
7029;SDS011;3556;53.500;10.176;2023-07-22T05:54:12;12.10;;;5.90;;
7029;SDS011;3556;53.500;10.176;2023-07-22T05:56:37;13.77;;;6.33;;
7029;SDS011;3556;53.500;10.176;2023-07-22T05:59:03;14.50;;;6.90;;
7029;SDS011;3556;53.500;10.176;2023-07-22T06:01:29;12.80;;;6.30;;
7029;SDS011;3556;53.500;10.176;2023-07-22T06:03:54;10.50;;;5.93;;
7029;SDS011;3556;53.500;10.176;2023-07-22T06:06:20;11.77;;;6.00;;
7029;SDS011;3556;53.500;10.176;2023-07-22T06:08:46;8.93;;;5.73;;
7029;SDS011;3556;53.500;10.176;2023-07-22T06:11:11;10.40;;;5.17;;
7029;SDS011;3556;53.500;10.176;2023-07-22T06:13:37;9.43;;;4.90;;
7029;SDS011;3556;53.500;10.176;2023-07-22T06:16:02;11.77;;;6.37;;
7029;SDS011;3556;53.500;10.176;2023-07-22T06:18:28;8.83;;;5.60;;
7029;SDS011;3556;53.500;10.176;2023-07-22T06:20:54;10.47;;;6.23;;
7029;SDS011;3556;53.500;10.176;2023-07-22T06:23:19;9.43;;;5.60;;
7029;SDS011;3556;53.500;10.176;2023-07-22T06:25:45;8.43;;;5.00;;
7029;SDS011;3556;53.500;10.176;2023-07-22T06:28:11;13.70;;;5.30;;
7029;SDS011;3556;53.500;10.176;2023-07-22T06:30:36;7.67;;;5.00;;
7029;SDS011;3556;53.500;10.176;2023-07-22T06:33:02;6.77;;;4.23;;
7029;SDS011;3556;53.500;10.176;2023-07-22T06:35:27;7.07;;;4.30;;
7029;SDS011;3556;53.500;10.176;2023-07-22T06:37:53;12.33;;;4.10;;
7029;SDS011;3556;53.500;10.176;2023-07-22T06:40:19;10.90;;;4.70;;
7029;SDS011;3556;53.500;10.176;2023-07-22T06:42:44;6.40;;;4.27;;
7029;SDS011;3556;53.500;10.176;2023-07-22T06:45:10;5.00;;;4.00;;
7029;SDS011;3556;53.500;10.176;2023-07-22T06:47:35;4.77;;;3.70;;
7029;SDS011;3556;53.500;10.176;2023-07-22T06:50:02;5.53;;;3.60;;
7029;SDS011;3556;53.500;10.176;2023-07-22T06:52:29;3.97;;;3.40;;
7029;SDS011;3556;53.500;10.176;2023-07-22T06:54:58;12.53;;;3.37;;
7029;SDS011;3556;53.500;10.176;2023-07-22T06:57:23;3.77;;;2.87;;
7029;SDS011;3556;53.500;10.176;2023-07-22T06:59:51;7.03;;;3.53;;
7029;SDS011;3556;53.500;10.176;2023-07-22T07:02:19;6.87;;;2.80;;
7029;SDS011;3556;53.500;10.176;2023-07-22T07:04:45;3.47;;;2.77;;
7029;SDS011;3556;53.500;10.176;2023-07-22T07:07:11;7.63;;;2.40;;
7029;SDS011;3556;53.500;10.176;2023-07-22T07:09:37;3.90;;;2.80;;
7029;SDS011;3556;53.500;10.176;2023-07-22T07:12:03;2.57;;;2.33;;
7029;SDS011;3556;53.500;10.176;2023-07-22T07:14:29;2.40;;;2.27;;
7029;SDS011;3556;53.500;10.176;2023-07-22T07:16:55;4.80;;;2.67;;
7029;SDS011;3556;53.500;10.176;2023-07-22T07:19:21;3.70;;;2.17;;
7029;SDS011;3556;53.500;10.176;2023-07-22T07:21:46;2.23;;;1.87;;
7029;SDS011;3556;53.500;10.176;2023-07-22T07:24:12;2.00;;;1.83;;
7029;SDS011;3556;53.500;10.176;2023-07-22T07:26:37;5.43;;;2.40;;
7029;SDS011;3556;53.500;10.176;2023-07-22T07:29:03;5.10;;;2.67;;
7029;SDS011;3556;53.500;10.176;2023-07-22T07:31:29;2.13;;;2.03;;
7029;SDS011;3556;53.500;10.176;2023-07-22T07:33:55;4.17;;;3.00;;
7029;SDS011;3556;53.500;10.176;2023-07-22T07:36:20;5.87;;;2.70;;
7029;SDS011;3556;53.500;10.176;2023-07-22T07:38:46;2.47;;;2.13;;
7029;SDS011;3556;53.500;10.176;2023-07-22T07:41:12;3.73;;;2.83;;
7029;SDS011;3556;53.500;10.176;2023-07-22T07:43:39;3.37;;;2.83;;
7029;SDS011;3556;53.500;10.176;2023-07-22T07:51:20;5.70;;;4.00;;
7029;SDS011;3556;53.500;10.176;2023-07-22T07:53:49;5.13;;;3.73;;
7029;SDS011;3556;53.500;10.176;2023-07-22T07:56:16;5.13;;;3.60;;
7029;SDS011;3556;53.500;10.176;2023-07-22T07:58:43;6.77;;;3.53;;
7029;SDS011;3556;53.500;10.176;2023-07-22T08:01:09;5.27;;;3.10;;
7029;SDS011;3556;53.500;10.176;2023-07-22T08:03:35;8.10;;;3.60;;
7029;SDS011;3556;53.500;10.176;2023-07-22T08:06:02;5.37;;;3.40;;
7029;SDS011;3556;53.500;10.176;2023-07-22T08:08:28;5.60;;;3.10;;
7029;SDS011;3556;53.500;10.176;2023-07-22T08:11:04;3.97;;;3.50;;
7029;SDS011;3556;53.500;10.176;2023-07-22T08:13:32;5.50;;;2.90;;
7029;SDS011;3556;53.500;10.176;2023-07-22T08:15:59;4.60;;;2.63;;
7029;SDS011;3556;53.500;10.176;2023-07-22T08:18:25;2.63;;;2.43;;
7029;SDS011;3556;53.500;10.176;2023-07-22T08:20:52;2.33;;;2.00;;
7029;SDS011;3556;53.500;10.176;2023-07-22T08:23:19;2.50;;;2.30;;
7029;SDS011;3556;53.500;10.176;2023-07-22T08:25:44;5.10;;;2.47;;
7029;SDS011;3556;53.500;10.176;2023-07-22T08:28:10;2.33;;;2.00;;
7029;SDS011;3556;53.500;10.176;2023-07-22T08:30:36;3.80;;;2.10;;
7029;SDS011;3556;53.500;10.176;2023-07-22T08:33:02;4.80;;;2.20;;
7029;SDS011;3556;53.500;10.176;2023-07-22T08:35:27;3.20;;;2.10;;
7029;SDS011;3556;53.500;10.176;2023-07-22T08:37:53;2.17;;;1.60;;
7029;SDS011;3556;53.500;10.176;2023-07-22T08:40:19;4.27;;;2.20;;
7029;SDS011;3556;53.500;10.176;2023-07-22T08:42:45;3.60;;;1.80;;
7029;SDS011;3556;53.500;10.176;2023-07-22T08:45:12;8.90;;;2.00;;
7029;SDS011;3556;53.500;10.176;2023-07-22T08:47:42;1.80;;;1.70;;
7029;SDS011;3556;53.500;10.176;2023-07-22T08:50:14;1.93;;;1.30;;
7029;SDS011;3556;53.500;10.176;2023-07-22T08:52:44;3.10;;;1.53;;
7029;SDS011;3556;53.500;10.176;2023-07-22T08:55:11;1.40;;;1.30;;
7029;SDS011;3556;53.500;10.176;2023-07-22T08:57:37;2.30;;;1.30;;
7029;SDS011;3556;53.500;10.176;2023-07-22T09:00:04;3.07;;;1.30;;
7029;SDS011;3556;53.500;10.176;2023-07-22T09:02:32;2.23;;;1.40;;
7029;SDS011;3556;53.500;10.176;2023-07-22T09:04:59;1.20;;;1.10;;
7029;SDS011;3556;53.500;10.176;2023-07-22T09:07:24;1.30;;;1.13;;
7029;SDS011;3556;53.500;10.176;2023-07-22T09:09:51;1.80;;;1.30;;
7029;SDS011;3556;53.500;10.176;2023-07-22T09:12:17;6.23;;;1.40;;
7029;SDS011;3556;53.500;10.176;2023-07-22T09:14:44;1.57;;;1.47;;
7029;SDS011;3556;53.500;10.176;2023-07-22T09:17:10;2.43;;;1.50;;
7029;SDS011;3556;53.500;10.176;2023-07-22T09:19:36;2.70;;;1.20;;
7029;SDS011;3556;53.500;10.176;2023-07-22T09:22:02;3.83;;;1.30;;
7029;SDS011;3556;53.500;10.176;2023-07-22T09:24:27;1.93;;;1.20;;
7029;SDS011;3556;53.500;10.176;2023-07-22T09:26:53;1.77;;;1.17;;
7029;SDS011;3556;53.500;10.176;2023-07-22T09:29:32;3.40;;;1.57;;
7029;SDS011;3556;53.500;10.176;2023-07-22T09:32:01;1.60;;;1.40;;
7029;SDS011;3556;53.500;10.176;2023-07-22T09:34:28;2.33;;;1.20;;
7029;SDS011;3556;53.500;10.176;2023-07-22T09:36:57;2.70;;;1.37;;
7029;SDS011;3556;53.500;10.176;2023-07-22T09:39:28;1.67;;;1.30;;
7029;SDS011;3556;53.500;10.176;2023-07-22T09:41:55;1.87;;;1.17;;
7029;SDS011;3556;53.500;10.176;2023-07-22T09:44:23;1.60;;;1.40;;
7029;SDS011;3556;53.500;10.176;2023-07-22T09:46:54;5.63;;;1.40;;
7029;SDS011;3556;53.500;10.176;2023-07-22T09:49:20;2.43;;;1.67;;
7029;SDS011;3556;53.500;10.176;2023-07-22T09:51:46;3.77;;;1.50;;
7029;SDS011;3556;53.500;10.176;2023-07-22T09:54:11;2.43;;;1.57;;
7029;SDS011;3556;53.500;10.176;2023-07-22T09:56:46;2.47;;;1.63;;
7029;SDS011;3556;53.500;10.176;2023-07-22T09:59:13;2.17;;;1.40;;
7029;SDS011;3556;53.500;10.176;2023-07-22T10:01:40;1.47;;;1.37;;
7029;SDS011;3556;53.500;10.176;2023-07-22T10:04:06;5.43;;;1.67;;
7029;SDS011;3556;53.500;10.176;2023-07-22T10:06:33;1.53;;;1.43;;
7029;SDS011;3556;53.500;10.176;2023-07-22T10:09:04;1.83;;;1.73;;
7029;SDS011;3556;53.500;10.176;2023-07-22T10:11:33;2.30;;;2.10;;
7029;SDS011;3556;53.500;10.176;2023-07-22T10:14:00;2.63;;;1.83;;
7029;SDS011;3556;53.500;10.176;2023-07-22T10:16:27;2.10;;;1.60;;
7029;SDS011;3556;53.500;10.176;2023-07-22T10:18:54;2.00;;;1.90;;
7029;SDS011;3556;53.500;10.176;2023-07-22T10:21:21;1.60;;;1.50;;
7029;SDS011;3556;53.500;10.176;2023-07-22T10:23:48;2.50;;;1.77;;
7029;SDS011;3556;53.500;10.176;2023-07-22T10:26:18;1.87;;;1.53;;
7029;SDS011;3556;53.500;10.176;2023-07-22T10:28:45;2.70;;;1.50;;
7029;SDS011;3556;53.500;10.176;2023-07-22T10:31:11;1.63;;;1.53;;
7029;SDS011;3556;53.500;10.176;2023-07-22T10:33:46;3.47;;;1.37;;
7029;SDS011;3556;53.500;10.176;2023-07-22T10:36:16;1.80;;;1.70;;
7029;SDS011;3556;53.500;10.176;2023-07-22T10:38:42;1.27;;;1.17;;
7029;SDS011;3556;53.500;10.176;2023-07-22T10:41:15;1.30;;;1.20;;
7029;SDS011;3556;53.500;10.176;2023-07-22T10:43:56;1.30;;;1.20;;
7029;SDS011;3556;53.500;10.176;2023-07-22T10:46:34;1.73;;;1.63;;
7029;SDS011;3556;53.500;10.176;2023-07-22T10:49:08;3.60;;;1.70;;
7029;SDS011;3556;53.500;10.176;2023-07-22T10:51:38;1.53;;;1.43;;
7029;SDS011;3556;53.500;10.176;2023-07-22T10:54:10;1.80;;;1.70;;
7029;SDS011;3556;53.500;10.176;2023-07-22T10:56:37;1.63;;;1.53;;
7029;SDS011;3556;53.500;10.176;2023-07-22T10:59:03;2.80;;;1.50;;
7029;SDS011;3556;53.500;10.176;2023-07-22T11:04:10;2.10;;;1.80;;
7029;SDS011;3556;53.500;10.176;2023-07-22T11:14:22;1.73;;;1.63;;
7029;SDS011;3556;53.500;10.176;2023-07-22T11:16:49;3.53;;;2.00;;
7029;SDS011;3556;53.500;10.176;2023-07-22T11:19:16;2.53;;;1.90;;
7029;SDS011;3556;53.500;10.176;2023-07-22T11:21:43;6.13;;;1.77;;
7029;SDS011;3556;53.500;10.176;2023-07-22T11:24:10;2.80;;;2.17;;
7029;SDS011;3556;53.500;10.176;2023-07-22T11:26:36;2.27;;;2.07;;
7029;SDS011;3556;53.500;10.176;2023-07-22T11:29:03;2.17;;;2.03;;
7029;SDS011;3556;53.500;10.176;2023-07-22T11:31:30;2.20;;;2.10;;
7029;SDS011;3556;53.500;10.176;2023-07-22T11:33:56;2.23;;;2.13;;
7029;SDS011;3556;53.500;10.176;2023-07-22T11:36:22;2.30;;;2.10;;
7029;SDS011;3556;53.500;10.176;2023-07-22T11:38:48;3.37;;;2.30;;
7029;SDS011;3556;53.500;10.176;2023-07-22T11:41:13;2.30;;;2.20;;
7029;SDS011;3556;53.500;10.176;2023-07-22T11:43:39;3.10;;;2.80;;
7029;SDS011;3556;53.500;10.176;2023-07-22T11:46:05;3.00;;;2.23;;
7029;SDS011;3556;53.500;10.176;2023-07-22T11:48:31;3.20;;;2.30;;
7029;SDS011;3556;53.500;10.176;2023-07-22T11:51:00;2.30;;;2.10;;
7029;SDS011;3556;53.500;10.176;2023-07-22T11:53:26;3.20;;;2.47;;
7029;SDS011;3556;53.500;10.176;2023-07-22T11:55:54;3.10;;;2.60;;
7029;SDS011;3556;53.500;10.176;2023-07-22T11:58:27;9.53;;;2.50;;
7029;SDS011;3556;53.500;10.176;2023-07-22T12:01:06;2.80;;;2.60;;
7029;SDS011;3556;53.500;10.176;2023-07-22T12:03:35;4.53;;;2.70;;
7029;SDS011;3556;53.500;10.176;2023-07-22T12:06:03;3.30;;;2.90;;
7029;SDS011;3556;53.500;10.176;2023-07-22T12:08:30;2.60;;;2.40;;
7029;SDS011;3556;53.500;10.176;2023-07-22T12:10:59;3.13;;;2.90;;
7029;SDS011;3556;53.500;10.176;2023-07-22T12:13:25;4.93;;;3.17;;
7029;SDS011;3556;53.500;10.176;2023-07-22T12:16:00;6.00;;;3.23;;
7029;SDS011;3556;53.500;10.176;2023-07-22T12:18:27;4.77;;;3.23;;
7029;SDS011;3556;53.500;10.176;2023-07-22T12:20:52;4.60;;;3.80;;
7029;SDS011;3556;53.500;10.176;2023-07-22T12:23:18;3.37;;;3.10;;
7029;SDS011;3556;53.500;10.176;2023-07-22T12:25:46;4.63;;;3.40;;
7029;SDS011;3556;53.500;10.176;2023-07-22T12:28:12;3.73;;;3.33;;
7029;SDS011;3556;53.500;10.176;2023-07-22T12:30:37;3.90;;;3.40;;
7029;SDS011;3556;53.500;10.176;2023-07-22T12:33:03;4.53;;;3.40;;
7029;SDS011;3556;53.500;10.176;2023-07-22T12:35:29;3.53;;;3.23;;
7029;SDS011;3556;53.500;10.176;2023-07-22T12:37:54;4.33;;;3.23;;
7029;SDS011;3556;53.500;10.176;2023-07-22T12:40:20;4.93;;;3.60;;
7029;SDS011;3556;53.500;10.176;2023-07-22T12:42:46;3.80;;;3.50;;
7029;SDS011;3556;53.500;10.176;2023-07-22T12:45:12;4.13;;;3.43;;
7029;SDS011;3556;53.500;10.176;2023-07-22T12:47:38;7.07;;;3.77;;
7029;SDS011;3556;53.500;10.176;2023-07-22T12:50:03;4.47;;;3.57;;
7029;SDS011;3556;53.500;10.176;2023-07-22T12:52:30;4.53;;;3.90;;
7029;SDS011;3556;53.500;10.176;2023-07-22T12:54:56;4.50;;;3.73;;
7029;SDS011;3556;53.500;10.176;2023-07-22T12:57:21;6.07;;;4.13;;
7029;SDS011;3556;53.500;10.176;2023-07-22T12:59:47;5.20;;;3.63;;
7029;SDS011;3556;53.500;10.176;2023-07-22T13:02:12;5.67;;;3.80;;
7029;SDS011;3556;53.500;10.176;2023-07-22T13:04:38;11.50;;;4.00;;
7029;SDS011;3556;53.500;10.176;2023-07-22T13:07:03;4.33;;;3.50;;
7029;SDS011;3556;53.500;10.176;2023-07-22T13:09:29;4.50;;;4.00;;
7029;SDS011;3556;53.500;10.176;2023-07-22T13:11:55;4.13;;;3.73;;
7029;SDS011;3556;53.500;10.176;2023-07-22T13:14:20;5.33;;;3.47;;
7029;SDS011;3556;53.500;10.176;2023-07-22T13:16:46;7.67;;;4.37;;
7029;SDS011;3556;53.500;10.176;2023-07-22T13:19:12;5.43;;;4.20;;
7029;SDS011;3556;53.500;10.176;2023-07-22T13:21:37;11.77;;;5.13;;
7029;SDS011;3556;53.500;10.176;2023-07-22T13:24:03;6.00;;;4.30;;
7029;SDS011;3556;53.500;10.176;2023-07-22T13:26:29;4.17;;;3.77;;
7029;SDS011;3556;53.500;10.176;2023-07-22T13:28:54;5.10;;;4.60;;
7029;SDS011;3556;53.500;10.176;2023-07-22T13:31:20;6.37;;;4.40;;
7029;SDS011;3556;53.500;10.176;2023-07-22T13:33:45;5.57;;;4.47;;
7029;SDS011;3556;53.500;10.176;2023-07-22T13:36:11;6.50;;;4.57;;
7029;SDS011;3556;53.500;10.176;2023-07-22T13:38:37;8.40;;;4.70;;
7029;SDS011;3556;53.500;10.176;2023-07-22T13:41:02;6.10;;;4.57;;
7029;SDS011;3556;53.500;10.176;2023-07-22T13:43:28;4.83;;;4.33;;
7029;SDS011;3556;53.500;10.176;2023-07-22T13:45:54;8.80;;;4.60;;
7029;SDS011;3556;53.500;10.176;2023-07-22T13:48:19;5.70;;;4.43;;
7029;SDS011;3556;53.500;10.176;2023-07-22T13:50:45;4.33;;;3.63;;
7029;SDS011;3556;53.500;10.176;2023-07-22T13:53:11;6.60;;;3.53;;
7029;SDS011;3556;53.500;10.176;2023-07-22T13:55:36;4.60;;;3.63;;
7029;SDS011;3556;53.500;10.176;2023-07-22T13:58:02;5.00;;;4.13;;
7029;SDS011;3556;53.500;10.176;2023-07-22T14:00:27;6.63;;;3.90;;
7029;SDS011;3556;53.500;10.176;2023-07-22T14:02:53;4.40;;;3.80;;
7029;SDS011;3556;53.500;10.176;2023-07-22T14:05:19;3.57;;;3.27;;
7029;SDS011;3556;53.500;10.176;2023-07-22T14:07:45;4.37;;;3.60;;
7029;SDS011;3556;53.500;10.176;2023-07-22T14:10:10;5.60;;;3.90;;
7029;SDS011;3556;53.500;10.176;2023-07-22T14:12:36;4.03;;;3.63;;
7029;SDS011;3556;53.500;10.176;2023-07-22T14:15:02;4.10;;;3.37;;
7029;SDS011;3556;53.500;10.176;2023-07-22T14:17:29;4.73;;;3.90;;
7029;SDS011;3556;53.500;10.176;2023-07-22T14:19:57;5.20;;;3.77;;
7029;SDS011;3556;53.500;10.176;2023-07-22T14:22:23;5.13;;;4.10;;
7029;SDS011;3556;53.500;10.176;2023-07-22T14:24:48;3.63;;;3.33;;
7029;SDS011;3556;53.500;10.176;2023-07-22T14:27:14;4.13;;;3.73;;
7029;SDS011;3556;53.500;10.176;2023-07-22T14:29:39;5.20;;;3.80;;
7029;SDS011;3556;53.500;10.176;2023-07-22T14:32:05;3.57;;;3.23;;
7029;SDS011;3556;53.500;10.176;2023-07-22T14:34:31;6.90;;;3.70;;
7029;SDS011;3556;53.500;10.176;2023-07-22T14:36:57;4.70;;;4.00;;
7029;SDS011;3556;53.500;10.176;2023-07-22T14:39:22;3.90;;;3.60;;
7029;SDS011;3556;53.500;10.176;2023-07-22T14:41:48;6.13;;;4.17;;
7029;SDS011;3556;53.500;10.176;2023-07-22T14:44:14;3.70;;;3.40;;
7029;SDS011;3556;53.500;10.176;2023-07-22T14:46:39;6.10;;;3.43;;
7029;SDS011;3556;53.500;10.176;2023-07-22T14:49:05;5.60;;;3.60;;
7029;SDS011;3556;53.500;10.176;2023-07-22T14:51:34;5.37;;;3.60;;
7029;SDS011;3556;53.500;10.176;2023-07-22T14:54:00;3.80;;;3.40;;
7029;SDS011;3556;53.500;10.176;2023-07-22T14:56:26;4.53;;;4.07;;
7029;SDS011;3556;53.500;10.176;2023-07-22T14:58:51;4.37;;;3.57;;
7029;SDS011;3556;53.500;10.176;2023-07-22T15:01:17;5.97;;;4.13;;
7029;SDS011;3556;53.500;10.176;2023-07-22T15:03:42;4.23;;;3.40;;
7029;SDS011;3556;53.500;10.176;2023-07-22T15:06:08;8.83;;;4.50;;
7029;SDS011;3556;53.500;10.176;2023-07-22T15:08:33;7.77;;;4.00;;